Time;durP1;ratioP1;P1;durP2;ratioP2;P2;SDS_P1;SDS_P2;PMS_P1;PMS_P2;Temp;Humidity;BMP_temperature;BMP_pressure;BME280_temperature;BME280_humidity;BME280_pressure;Samples;Min_cycle;Max_cycle;Signal;HPM_P1;HPM_P2
2023/04/12 00:06:16;;;;;;;20.6;11.7;;;;;;;7.3;87.3;98100;;;;
2023/04/12 00:16:14;;;;;;;16;9.8;;;;;;;7.1;87.2;98090;;;;
2023/04/12 00:27:14;;;;;;;16;9.8;;;;;;;7;86.9;98080;;;;
2023/04/12 00:37:14;;;;;;;16;9.8;;;;;;;7;87;98080;;;;
2023/04/12 00:47:15;;;;;;;13.7;8.5;;;;;;;6.8;87.1;98080;;;;
2023/04/12 00:58:15;;;;;;;13.7;8.5;;;;;;;6.8;87;98080;;;;
2023/04/12 01:09:15;;;;;;;15.5;8.4;;;;;;;6.8;86.9;98080;;;;
2023/04/12 01:20:15;;;;;;;15.5;8.4;;;;;;;6.7;86.9;98090;;;;
2023/04/12 01:30:15;;;;;;;15.5;8.4;;;;;;;6.8;87;98080;;;;
2023/04/12 01:41:14;;;;;;;13.5;8.8;;;;;;;6.8;87.2;98080;;;;
2023/04/12 01:52:15;;;;;;;13.5;8.8;;;;;;;6.7;87.4;98080;;;;
2023/04/12 02:02:14;;;;;;;13.5;8.8;;;;;;;6.7;87.6;98080;;;;
2023/04/12 02:12:15;;;;;;;14.6;9.7;;;;;;;6.7;87.3;98080;;;;
2023/04/12 02:23:14;;;;;;;14.6;9.7;;;;;;;6.6;87.2;98090;;;;
2023/04/12 02:34:16;;;;;;;14.6;9.7;;;;;;;6.6;86.7;98080;;;;
2023/04/12 02:45:15;;;;;;;15;7.5;;;;;;;6.6;86.1;98080;;;;
2023/04/12 02:56:17;;;;;;;15;7.5;;;;;;;6.6;85.9;98080;;;;
2023/04/12 03:07:15;;;;;;;12.5;6.7;;;;;;;6.5;85.7;98080;;;;
2023/04/12 03:17:14;;;;;;;12.5;6.7;;;;;;;6.6;85.6;98080;;;;
2023/04/12 03:27:14;;;;;;;12.5;6.7;;;;;;;6.5;85.2;98080;;;;
2023/04/12 03:38:15;;;;;;;13.5;7.2;;;;;;;6.6;85.5;98080;;;;
2023/04/12 03:48:15;;;;;;;13.5;7.2;;;;;;;6.5;85.8;98080;;;;
2023/04/12 03:58:15;;;;;;;13.5;7.2;;;;;;;6.4;86.1;98090;;;;
2023/04/12 04:09:14;;;;;;;11.8;6.3;;;;;;;6.4;85.8;98080;;;;
2023/04/12 04:19:14;;;;;;;11.8;6.3;;;;;;;6.4;85.6;98090;;;;
2023/04/12 04:30:15;;;;;;;11.8;6.3;;;;;;;6.4;85;98100;;;;
2023/04/12 04:41:16;;;;;;;9.3;5.4;;;;;;;6.4;85.1;98100;;;;
2023/04/12 04:51:14;;;;;;;9.3;5.4;;;;;;;6.3;84.8;98100;;;;
2023/04/12 05:01:15;;;;;;;9.3;5.4;;;;;;;6.4;84.3;98110;;;;
2023/04/12 05:12:15;;;;;;;11.3;5.8;;;;;;;6.5;83.7;98110;;;;
2023/04/12 05:23:15;;;;;;;11.3;5.8;;;;;;;6.6;83.3;98110;;;;
2023/04/12 05:34:15;;;;;;;11.3;5.8;;;;;;;6.6;83.1;98120;;;;
2023/04/12 05:45:15;;;;;;;14.2;7.9;;;;;;;6.6;82.4;98120;;;;
2023/04/12 05:56:15;;;;;;;14.2;7.9;;;;;;;6.6;82.1;98130;;;;
2023/04/12 06:06:14;;;;;;;14.2;7.9;;;;;;;6.6;82.1;98130;;;;
2023/04/12 06:16:14;;;;;;;13;6.6;;;;;;;6.6;82;98130;;;;
2023/04/12 06:26:15;;;;;;;13;6.6;;;;;;;6.8;82;98120;;;;
2023/04/12 06:36:15;;;;;;;13;6.6;;;;;;;6.8;81.7;98100;;;;
2023/04/12 06:47:15;;;;;;;12.4;8.1;;;;;;;7;80.7;98100;;;;
2023/04/12 06:57:14;;;;;;;12.4;8.1;;;;;;;7.1;80.4;98090;;;;
2023/04/12 07:08:14;;;;;;;12.9;6.9;;;;;;;7.5;78.7;98100;;;;
2023/04/12 07:18:15;;;;;;;12.9;6.9;;;;;;;7.8;77.6;98110;;;;
2023/04/12 07:28:15;;;;;;;12.9;6.9;;;;;;;7.8;77.3;98110;;;;
2023/04/12 07:39:15;;;;;;;14.6;9.2;;;;;;;8;76.9;98120;;;;
2023/04/12 07:50:15;;;;;;;14.6;9.2;;;;;;;8.3;76.9;98120;;;;
2023/04/12 08:00:15;;;;;;;14.6;9.2;;;;;;;8.4;75.6;98100;;;;
2023/04/12 08:10:15;;;;;;;15.7;9.8;;;;;;;8.9;74.8;98100;;;;
2023/04/12 08:21:15;;;;;;;15.7;9.8;;;;;;;9.7;73.8;98090;;;;
2023/04/12 08:31:15;;;;;;;15.7;9.8;;;;;;;9.8;71.8;98090;;;;
2023/04/12 08:42:15;;;;;;;14.2;10.3;;;;;;;10.7;71.1;98090;;;;
2023/04/12 08:53:15;;;;;;;14.2;10.3;;;;;;;10.4;69.6;98070;;;;
2023/04/12 09:03:15;;;;;;;14.2;10.3;;;;;;;10.6;69.7;98060;;;;
2023/04/12 09:14:16;;;;;;;14.7;10.5;;;;;;;10.9;70.1;98050;;;;
2023/04/12 09:24:15;;;;;;;14.7;10.5;;;;;;;11.2;66.1;98040;;;;
2023/04/12 09:35:15;;;;;;;14.7;10.5;;;;;;;11.8;68.4;98040;;;;
2023/04/12 09:45:15;;;;;;;13;8.1;;;;;;;12;65.4;98030;;;;
2023/04/12 09:56:15;;;;;;;13;8.1;;;;;;;11.6;62;98020;;;;
2023/04/12 10:07:15;;;;;;;8;5.9;;;;;;;12.1;62.2;98000;;;;
2023/04/12 10:18:15;;;;;;;8;5.9;;;;;;;12.6;59.3;97980;;;;
2023/04/12 10:29:15;;;;;;;8;5.9;;;;;;;13.9;57.9;97980;;;;
2023/04/12 10:39:15;;;;;;;8.6;5.5;;;;;;;14.5;56.9;97980;;;;
2023/04/12 10:49:15;;;;;;;8.6;5.5;;;;;;;14.5;55.8;97970;;;;
2023/04/12 10:59:15;;;;;;;8.6;5.5;;;;;;;13.8;55.1;97960;;;;
2023/04/12 11:10:15;;;;;;;8.5;5.7;;;;;;;13.1;57.4;97960;;;;
2023/04/12 11:20:15;;;;;;;8.5;5.7;;;;;;;12.6;58.7;97950;;;;
2023/04/12 11:31:16;;;;;;;8.5;5.7;;;;;;;12.4;58.5;97950;;;;
2023/04/12 11:41:15;;;;;;;9.9;5.6;;;;;;;12.5;58.2;97930;;;;
2023/04/12 11:51:15;;;;;;;9.9;5.6;;;;;;;12.7;58;97930;;;;
2023/04/12 12:01:15;;;;;;;9.9;5.6;;;;;;;12.7;57.7;97920;;;;
2023/04/12 12:12:15;;;;;;;7.3;4.9;;;;;;;13;56.8;97920;;;;
2023/04/12 12:23:15;;;;;;;7.3;4.9;;;;;;;13.3;56.6;97910;;;;
2023/04/12 12:33:16;;;;;;;7.3;4.9;;;;;;;13.7;55.7;97890;;;;
2023/04/12 12:44:15;;;;;;;9.4;6.5;;;;;;;13.9;56.2;97880;;;;
2023/04/12 12:54:15;;;;;;;9.4;6.5;;;;;;;14.4;54.5;97870;;;;
2023/04/12 13:05:15;;;;;;;9.4;6.5;;;;;;;14.3;57.1;97860;;;;
2023/04/12 13:15:15;;;;;;;10.5;5.7;;;;;;;14.3;55.8;97850;;;;
2023/04/12 13:26:15;;;;;;;10.5;5.7;;;;;;;14.3;55.6;97840;;;;
2023/04/12 13:36:15;;;;;;;6.8;4.8;;;;;;;14.3;55;97830;;;;
2023/04/12 13:46:15;;;;;;;6.8;4.8;;;;;;;13.8;55.6;97830;;;;
2023/04/12 13:57:15;;;;;;;6.8;4.8;;;;;;;14.4;55.9;97820;;;;
2023/04/12 14:07:15;;;;;;;98.1;86;;;;;;;14.2;54.7;97810;;;;
2023/04/12 14:18:15;;;;;;;98.1;86;;;;;;;14.4;53;97810;;;;
2023/04/12 14:29:16;;;;;;;98.1;86;;;;;;;15.9;52.7;97810;;;;
2023/04/12 14:39:15;;;;;;;7.6;4.7;;;;;;;16.6;48.8;97800;;;;
2023/04/12 14:50:15;;;;;;;7.6;4.7;;;;;;;16.3;47.7;97800;;;;
2023/04/12 15:00:15;;;;;;;7.6;4.7;;;;;;;16.1;46.6;97790;;;;
2023/04/12 15:11:17;;;;;;;6.4;3.7;;;;;;;18.6;43.5;97780;;;;
2023/04/12 15:22:15;;;;;;;6.4;3.7;;;;;;;20.1;41.7;97780;;;;
2023/04/12 15:32:15;;;;;;;6.4;3.7;;;;;;;20.4;39.8;97770;;;;
2023/04/12 15:42:15;;;;;;;5.8;3.1;;;;;;;20.3;37.7;97760;;;;
2023/04/12 15:53:15;;;;;;;5.8;3.1;;;;;;;21.7;37.5;97750;;;;
2023/04/12 16:03:18;;;;;;;5.8;3.1;;;;;;;22.6;35.2;97740;;;;
2023/04/12 16:13:15;;;;;;;4.8;2.6;;;;;;;19.8;37.3;97740;;;;
2023/04/12 16:24:15;;;;;;;4.8;2.6;;;;;;;20.1;39.1;97740;;;;
2023/04/12 16:34:15;;;;;;;4.8;2.6;;;;;;;18.8;39.3;97730;;;;
2023/04/12 16:45:16;;;;;;;8.5;6;;;;;;;15.8;45;97720;;;;
2023/04/12 16:56:15;;;;;;;8.5;6;;;;;;;14.2;48.2;97730;;;;
2023/04/12 17:06:15;;;;;;;8.5;6;;;;;;;12.8;53.4;97720;;;;
2023/04/12 17:16:15;;;;;;;10.4;8.1;;;;;;;11.8;56.8;97730;;;;
2023/04/12 17:27:15;;;;;;;10.4;8.1;;;;;;;10.7;59.7;97710;;;;
2023/04/12 17:37:15;;;;;;;19.9;12.5;;;;;;;10.2;59.6;97710;;;;
2023/04/12 17:48:15;;;;;;;19.9;12.5;;;;;;;9.6;61.7;97720;;;;
2023/04/12 17:58:15;;;;;;;19.9;12.5;;;;;;;8.9;63.7;97720;;;;
2023/04/12 18:08:15;;;;;;;12.2;6.3;;;;;;;8.4;65.6;97730;;;;
2023/04/12 18:18:15;;;;;;;12.2;6.3;;;;;;;8;66.5;97740;;;;
2023/04/12 18:28:16;;;;;;;12.2;6.3;;;;;;;7.6;69.4;97730;;;;
2023/04/12 18:39:15;;;;;;;14.8;9;;;;;;;7.2;70;97730;;;;
2023/04/12 18:49:15;;;;;;;14.8;9;;;;;;;7;71.9;97730;;;;
2023/04/12 18:59:16;;;;;;;14.8;9;;;;;;;6.8;73.9;97710;;;;
2023/04/12 19:10:16;;;;;;;15.7;9.3;;;;;;;6.6;75.3;97710;;;;
2023/04/12 19:21:15;;;;;;;15.7;9.3;;;;;;;6.5;76.3;97710;;;;
2023/04/12 19:32:15;;;;;;;15.7;9.3;;;;;;;6.4;77.9;97710;;;;
2023/04/12 19:42:15;;;;;;;17.6;9.9;;;;;;;6.3;77.7;97710;;;;
2023/04/12 19:53:16;;;;;;;17.6;9.9;;;;;;;6.1;77.6;97700;;;;
2023/04/12 20:03:15;;;;;;;17.6;9.9;;;;;;;5.9;78.1;97700;;;;
2023/04/12 20:14:15;;;;;;;20.4;10.9;;;;;;;5.7;77.8;97700;;;;
2023/04/12 20:24:15;;;;;;;20.4;10.9;;;;;;;5.6;78.8;97690;;;;
2023/04/12 20:35:17;;;;;;;20.4;10.9;;;;;;;5.5;79.6;97690;;;;
2023/04/12 20:45:17;;;;;;;18;10.5;;;;;;;5.4;79.6;97680;;;;
2023/04/12 20:56:17;;;;;;;18;10.5;;;;;;;5.3;79.8;97680;;;;
2023/04/12 21:06:16;;;;;;;29.1;15.8;;;;;;;5.1;79.4;97680;;;;
2023/04/12 21:17:15;;;;;;;29.1;15.8;;;;;;;4.9;79.9;97680;;;;
2023/04/12 21:27:15;;;;;;;29.1;15.8;;;;;;;4.6;80.6;97670;;;;
2023/04/12 21:37:15;;;;;;;21.5;12.1;;;;;;;4.5;80.7;97660;;;;
2023/04/12 21:48:15;;;;;;;21.5;12.1;;;;;;;4.2;81;97670;;;;
2023/04/12 21:59:16;;;;;;;21.5;12.1;;;;;;;4.1;81.3;97650;;;;
2023/04/12 22:09:15;;;;;;;28;16.4;;;;;;;3.9;81.5;97660;;;;
2023/04/12 22:19:15;;;;;;;28;16.4;;;;;;;3.7;81.7;97640;;;;
2023/04/12 22:29:16;;;;;;;28;16.4;;;;;;;3.6;82.6;97640;;;;
2023/04/12 22:40:15;;;;;;;28.5;13;;;;;;;3.5;82.9;97640;;;;
2023/04/12 22:51:15;;;;;;;28.5;13;;;;;;;3.4;83.5;97640;;;;
2023/04/12 23:01:16;;;;;;;28.5;13;;;;;;;3.3;83.5;97630;;;;
2023/04/12 23:11:15;;;;;;;21.6;13.9;;;;;;;3.2;83.7;97620;;;;
2023/04/12 23:21:15;;;;;;;21.6;13.9;;;;;;;3;83.6;97610;;;;
2023/04/12 23:32:15;;;;;;;21.6;13.9;;;;;;;3;84.2;97580;;;;
2023/04/12 23:42:15;;;;;;;23.3;11.5;;;;;;;3;85;97560;;;;
2023/04/12 23:52:17;;;;;;;23.3;11.5;;;;;;;2.9;85.2;97560;;;;
